WARR/SUB METAR and TAF weather

Enter ICAO airport designator
Station Type Date Time Source
WARR METAR 2021/04/18 02:00 UTC NOAA

WARR 180200Z VRB02KT 8000 FEW020 30/24 Q1013 NOSIG


Station Type Date Time Source
WARR Decoded METAR 2021/04/18 02:00 UTC NOAA

Station name not available
Apr 17, 2021 - 10:00 PM EDT / 2021.04.18 0200 UTC
Wind: Variable at 2 MPH (2 KT):0
Visibility: 4 mile(s):0
Sky conditions: mostly clear
Temperature: 86 F (30 C)
Heat index: 95.0 F (35.0 C):1
Dew Point: 75 F (24 C)
Relative Humidity: 70%
Pressure (altimeter): 29.91 in. Hg (1013 hPa)
ob: WARR 180200Z VRB02KT 8000 FEW020 30/24 Q1013 NOSIG
cycle: 2

Station Type Date Time Source
WARR TAF 2021/04/17 18:09 UTC NOAA

TAF WARR 171700Z 1718/1818 26005KT 7000 FEW020
BECMG 1719/1721 4000 HZ
BECMG 1800/1802 11010KT 9999 NSW

Example: see airport list